createdAt,value
2022-08-22T00:00:13.654Z,100369.47
2022-08-22T00:03:01.016Z,100320.47
2022-08-22T00:03:08.441Z,100347.84
2022-08-22T00:06:07.295Z,100331.81
2022-08-22T00:09:00.747Z,100356.53
2022-08-22T00:11:38.761Z,100373.09
2022-08-22T00:14:48.202Z,100362.41
2022-08-22T00:17:28.422Z,100357.41
2022-08-22T00:20:03.709Z,100357.63
2022-08-22T00:22:51.350Z,100360.59
2022-08-22T00:25:42.890Z,100374.88
2022-08-22T00:28:16.068Z,100368.63
2022-08-22T00:30:52.474Z,100352.56
2022-08-22T00:33:29.737Z,100348.31
2022-08-22T00:36:13.151Z,100334.69
2022-08-22T00:39:10.824Z,100369.88
2022-08-22T00:42:31.375Z,100367.88
2022-08-22T00:45:42.818Z,100365.78
2022-08-22T00:48:47.833Z,100365.19
2022-08-22T00:51:31.744Z,100370.41
2022-08-22T00:54:18.303Z,100359.44
2022-08-22T00:57:07.954Z,100356.16
2022-08-22T00:59:57.210Z,100366.25
2022-08-22T01:02:58.179Z,100366.72
2022-08-22T01:05:46.258Z,100362.25
2022-08-22T01:08:52.314Z,100369.97
2022-08-22T01:11:50.818Z,100376.47
2022-08-22T01:14:39.975Z,100370.69
2022-08-22T01:17:25.506Z,100374.84
2022-08-22T01:24:00.183Z,100372.38
2022-08-22T01:26:55.309Z,100373.47
2022-08-22T01:32:32.645Z,100371.53
2022-08-22T01:35:25.427Z,100375.94
2022-08-22T01:38:22.241Z,100374.44
2022-08-22T01:41:13.204Z,100372.75
2022-08-22T01:44:22.561Z,100387.25
2022-08-22T01:47:41.790Z,100377.19
2022-08-22T01:50:24.519Z,100384.16
2022-08-22T01:53:10.119Z,100377.88
2022-08-22T01:56:01.562Z,100365.63
2022-08-22T01:58:34.745Z,100379.88
2022-08-22T02:04:53.683Z,100389.88
2022-08-22T02:07:39.839Z,100390.47
2022-08-22T02:10:43.693Z,100397.16
2022-08-22T02:13:13.916Z,100395.06
2022-08-22T02:15:47.763Z,100394.28
2022-08-22T02:18:25.649Z,100383.69
2022-08-22T02:21:14.479Z,100397.22
2022-08-22T02:24:17.846Z,100407.88
2022-08-22T02:27:12.543Z,100377.63
2022-08-22T02:29:49.550Z,100379.91
2022-08-22T02:32:40.821Z,100385.22
2022-08-22T02:35:11.369Z,100404.50
2022-08-22T02:37:57.518Z,100392.22
2022-08-22T02:40:53.663Z,100389.50
2022-08-22T02:43:30.023Z,100399.19
2022-08-22T02:46:17.980Z,100372.81
2022-08-22T02:48:51.164Z,100401.88
2022-08-22T02:51:59.289Z,100395.25
2022-08-22T02:54:48.023Z,100409.34
2022-08-22T02:57:21.436Z,100404.22
2022-08-22T03:00:31.972Z,100410.25
2022-08-22T03:03:04.404Z,100421.84
2022-08-22T03:05:38.119Z,100426.31
2022-08-22T03:08:13.339Z,100416.75
2022-08-22T03:10:48.056Z,100411.72
2022-08-22T03:13:37.295Z,100429.63
2022-08-22T03:16:13.685Z,100408.06
2022-08-22T03:19:02.873Z,100425.22
2022-08-22T03:21:41.627Z,100413.28
2022-08-22T03:24:26.316Z,100429.31
2022-08-22T03:27:00.418Z,100434.47
2022-08-22T03:29:33.626Z,100415.59
2022-08-22T03:32:09.460Z,100412.69
2022-08-22T03:34:41.762Z,100443.31
2022-08-22T03:37:16.098Z,100428.88
2022-08-22T03:39:53.644Z,100407.16
2022-08-22T03:45:46.523Z,100434.78
2022-08-22T03:48:41.843Z,100444.47
2022-08-22T03:51:31.393Z,100438.72
2022-08-22T03:54:24.644Z,100438.19
2022-08-22T03:57:13.788Z,100451.78
2022-08-22T04:00:03.606Z,100430.63
2022-08-22T04:02:52.318Z,100450.03
2022-08-22T04:05:32.777Z,100455.41
2022-08-22T04:08:54.272Z,100446.38
2022-08-22T04:11:53.124Z,100452.97
2022-08-22T04:14:25.753Z,100439.91
2022-08-22T04:17:41.281Z,100447.00
2022-08-22T04:20:18.330Z,100443.88
2022-08-22T04:23:01.241Z,100450.53
2022-08-22T04:25:41.008Z,100444.91
2022-08-22T04:28:30.582Z,100441.66
2022-08-22T04:31:09.526Z,100436.81
2022-08-22T04:37:10.101Z,100454.53
2022-08-22T04:43:10.479Z,100453.28
2022-08-22T04:45:46.639Z,100448.19
2022-08-22T04:48:21.462Z,100439.88
2022-08-22T04:51:13.198Z,100462.25
2022-08-22T04:53:56.245Z,100455.63
2022-08-22T04:56:40.795Z,100437.34
2022-08-22T04:59:14.818Z,100450.69
2022-08-22T05:01:54.409Z,100436.94
2022-08-22T05:04:29.307Z,100433.56
2022-08-22T05:07:33.942Z,100452.47
2022-08-22T05:10:19.276Z,100451.03
2022-08-22T05:12:57.858Z,100431.81
2022-08-22T05:15:36.571Z,100434.41
2022-08-22T05:18:20.033Z,100461.41
2022-08-22T05:20:51.423Z,100426.09
2022-08-22T05:23:21.268Z,100424.59
2022-08-22T05:25:52.216Z,100442.00
2022-08-22T05:31:25.435Z,100454.34
2022-08-22T05:34:07.328Z,100456.56
2022-08-22T05:36:45.878Z,100456.66
2022-08-22T05:52:31.104Z,100467.19
2022-08-22T05:55:19.291Z,100443.38
2022-08-22T05:58:26.640Z,100440.59
2022-08-22T06:01:15.412Z,100444.63
2022-08-22T06:04:32.811Z,100464.00
2022-08-22T06:07:26.248Z,100468.00
2022-08-22T06:10:16.613Z,100456.22
2022-08-22T06:12:56.027Z,100446.41
2022-08-22T06:15:32.853Z,100471.81
2022-08-22T06:18:06.648Z,100447.22
2022-08-22T06:20:41.326Z,100469.78
2022-08-22T06:23:12.635Z,100437.66
2022-08-22T06:25:48.633Z,100448.69
2022-08-22T06:28:27.310Z,100458.75
2022-08-22T06:30:57.009Z,100457.72
2022-08-22T06:33:31.871Z,100445.63
2022-08-22T06:36:32.690Z,100455.88
2022-08-22T06:39:17.777Z,100469.16
2022-08-22T06:42:16.742Z,100462.59
2022-08-22T06:45:19.492Z,100468.84
2022-08-22T06:50:59.980Z,100458.28
2022-08-22T06:53:39.635Z,100445.00
2022-08-22T06:59:03.514Z,100454.94
2022-08-22T07:01:35.934Z,100455.66
2022-08-22T07:04:32.950Z,100439.03
2022-08-22T07:07:02.559Z,100431.16
2022-08-22T07:09:41.921Z,100433.19
2022-08-22T07:12:55.895Z,100450.53
2022-08-22T07:15:37.456Z,100458.66
2022-08-22T07:18:09.459Z,100466.03
2022-08-22T07:20:50.105Z,100456.38
2022-08-22T07:23:48.556Z,100450.34
2022-08-22T07:26:53.349Z,100464.75
2022-08-22T07:29:29.442Z,100463.16
2022-08-22T07:35:19.547Z,100461.75
2022-08-22T07:41:32.560Z,100442.72
2022-08-22T07:44:33.810Z,100457.97
2022-08-22T07:47:10.126Z,100441.41
2022-08-22T07:49:55.802Z,100461.56
2022-08-22T07:52:24.648Z,100448.06
2022-08-22T07:55:03.293Z,100439.75
2022-08-22T07:57:35.605Z,100462.13
2022-08-22T08:00:14.353Z,100431.34
2022-08-22T08:03:01.619Z,100436.63
2022-08-22T08:05:34.413Z,100450.88
2022-08-22T08:08:09.493Z,100431.84
2022-08-22T08:10:53.947Z,100436.97
2022-08-22T08:13:52.484Z,100451.06
2022-08-22T08:16:30.143Z,100430.69
2022-08-22T08:21:55.000Z,100418.22
2022-08-22T08:24:36.422Z,100441.63
2022-08-22T08:27:34.965Z,100435.94
2022-08-22T08:30:15.431Z,100434.66
2022-08-22T08:32:57.466Z,100416.78
2022-08-22T08:36:02.894Z,100425.47
2022-08-22T08:39:05.291Z,100416.63
2022-08-22T08:41:53.418Z,100429.44
2022-08-22T08:44:58.617Z,100434.66
2022-08-22T08:47:58.224Z,100438.50
2022-08-22T08:50:46.885Z,100434.75
2022-08-22T08:53:31.255Z,100420.06
2022-08-22T08:56:02.918Z,100440.38
2022-08-22T08:58:54.050Z,100440.44
2022-08-22T09:05:02.109Z,100425.31
2022-08-22T09:07:32.314Z,100430.91
2022-08-22T09:13:57.907Z,100421.22
2022-08-22T09:20:27.713Z,100399.53
2022-08-22T09:23:46.132Z,100412.44
2022-08-22T09:29:54.437Z,100412.63
2022-08-22T09:32:46.565Z,100419.97
2022-08-22T09:35:19.132Z,100416.38
2022-08-22T09:38:21.219Z,100398.31
2022-08-22T09:41:21.527Z,100409.75
2022-08-22T09:44:09.108Z,100427.81
2022-08-22T09:47:07.640Z,100415.31
2022-08-22T09:52:52.310Z,100411.28
2022-08-22T09:55:43.028Z,100404.41
2022-08-22T10:02:15.558Z,100395.00
2022-08-22T10:05:40.403Z,100401.91
2022-08-22T10:14:10.564Z,100397.44
2022-08-22T10:17:09.826Z,100407.94
2022-08-22T10:19:50.953Z,100399.59
2022-08-22T10:22:31.152Z,100407.66
2022-08-22T10:25:23.327Z,100395.66
2022-08-22T10:34:11.014Z,100419.06
2022-08-22T10:36:44.762Z,100405.50
2022-08-22T10:39:24.964Z,100352.97
2022-08-22T10:42:09.972Z,100366.00
2022-08-22T10:52:15.492Z,100389.38
2022-08-22T10:55:10.708Z,100386.81
2022-08-22T11:05:01.830Z,100374.53
2022-08-22T12:39:42.540Z,100348.38
2022-08-22T12:42:23.097Z,100340.63
2022-08-22T12:45:27.466Z,100341.06
2022-08-22T12:52:06.936Z,100353.84
2022-08-22T12:58:33.189Z,100344.22
2022-08-22T13:10:49.908Z,100326.41
2022-08-22T14:04:36.469Z,100329.75
2022-08-22T14:07:14.179Z,100331.16
2022-08-22T14:16:40.188Z,100311.97
2022-08-22T14:22:32.532Z,100327.78
2022-08-22T14:25:22.001Z,100338.75
2022-08-22T14:34:45.429Z,100301.03
2022-08-22T14:41:52.771Z,100308.59
2022-08-22T14:44:29.308Z,100323.25
2022-08-22T14:46:59.189Z,100323.50
2022-08-22T14:49:34.611Z,100299.81
2022-08-22T14:52:19.619Z,100294.75
2022-08-22T14:54:48.411Z,100293.34
2022-08-22T14:57:21.556Z,100308.38
2022-08-22T14:59:53.126Z,100294.66
2022-08-22T15:02:47.762Z,100305.69
2022-08-22T15:08:50.047Z,100316.06
2022-08-22T15:11:25.106Z,100318.25
2022-08-22T15:14:13.450Z,100305.03
2022-08-22T15:16:54.348Z,100315.47
2022-08-22T15:19:27.510Z,100308.88
2022-08-22T15:22:19.796Z,100329.81
2022-08-22T15:25:19.386Z,100302.41
2022-08-22T15:28:05.723Z,100309.13
2022-08-22T15:30:39.034Z,100317.38
2022-08-22T15:33:54.141Z,100315.25
2022-08-22T15:37:08.365Z,100312.53
2022-08-22T15:40:12.778Z,100292.84
2022-08-22T15:43:16.459Z,100303.66
2022-08-22T15:45:51.015Z,100309.41
2022-08-22T15:48:26.742Z,100285.50
2022-08-22T15:51:11.669Z,100305.69
2022-08-22T15:53:48.015Z,100320.66
2022-08-22T15:56:26.572Z,100297.72
2022-08-22T15:59:20.975Z,100305.78
2022-08-22T16:01:57.398Z,100308.91
2022-08-22T16:04:56.456Z,100320.22
2022-08-22T16:07:56.003Z,100317.94
2022-08-22T16:10:23.711Z,100329.03
2022-08-22T16:16:56.165Z,100327.91
2022-08-22T16:19:26.691Z,100308.38
2022-08-22T16:21:54.733Z,100330.97
2022-08-22T16:24:23.191Z,100333.00
2022-08-22T16:30:12.010Z,100305.22
2022-08-22T16:32:44.676Z,100306.59
2022-08-22T16:35:23.792Z,100313.81
2022-08-22T16:38:00.889Z,100318.16
2022-08-22T16:53:45.628Z,100333.88
2022-08-22T16:56:30.697Z,100315.59
2022-08-22T16:59:22.828Z,100318.66
2022-08-22T17:01:51.830Z,100340.97
2022-08-22T17:04:56.714Z,100313.56
2022-08-22T17:10:58.785Z,100344.25
2022-08-22T17:14:08.755Z,100321.81
2022-08-22T17:17:24.677Z,100331.88
2022-08-22T17:20:02.323Z,100339.09
2022-08-22T17:23:05.605Z,100341.94
2022-08-22T17:26:00.304Z,100346.25
2022-08-22T17:28:46.704Z,100349.81
2022-08-22T17:31:38.572Z,100332.84
2022-08-22T17:34:29.851Z,100344.41
2022-08-22T17:37:19.984Z,100352.22
2022-08-22T17:40:19.889Z,100348.50
2022-08-22T17:43:27.511Z,100353.53
2022-08-22T17:46:56.110Z,100349.56
2022-08-22T17:53:03.528Z,100332.06
2022-08-22T17:55:39.459Z,100322.56
2022-08-22T17:58:31.622Z,100314.56
2022-08-22T18:01:32.079Z,100322.59
2022-08-22T18:04:05.991Z,100323.88
2022-08-22T18:10:55.496Z,100344.28
2022-08-22T18:13:47.847Z,100346.53
2022-08-22T18:16:33.072Z,100338.03
2022-08-22T18:19:52.449Z,100330.09
2022-08-22T18:22:33.131Z,100343.84
2022-08-22T18:25:18.306Z,100322.06
2022-08-22T18:28:10.896Z,100333.13
2022-08-22T18:31:06.280Z,100313.84
2022-08-22T19:36:40.089Z,100346.09
2022-08-22T20:22:20.316Z,100360.28
